INFORMACIÓN METAR y TAF
METAR FOR LIPO
ADDS - METARS form results

(0239 UTC 29 September 2021)
Data provider http://aviationweather.gov/metar/data/
 
METAR text: LIPO 290220Z AUTO 03008KT 9999 BKN081/// BKN130/// 20/13 Q1017
Conditions at: LIPO (BRESCIA/MONTICHI, IT) observed 0220 UTC 29 September 2021
Temperature: 20.0°C (68°F)
Dewpoint: 13.0°C (55°F) [RH = 64%]
Pressure (altimeter): 30.03 inches Hg (1017.0 mb)
Winds: from the NNE (30 degrees) at 9 MPH (8 knots; 4.1 m/s)
Visibility: 6 or more miles (10+ km)
Ceiling: 8100 feet AGL
Clouds: broken clouds at 8100 feet AGL
broken clouds at 13000 feet AGL
Weather: no significant weather observed at this time

METAR text: LIPO 290150Z AUTO 04007KT 9999 FEW081/// BKN120/// 20/13 Q1017
Conditions at: LIPO (BRESCIA/MONTICHI, IT) observed 0150 UTC 29 September 2021
Temperature: 20.0°C (68°F)
Dewpoint: 13.0°C (55°F) [RH = 64%]
Pressure (altimeter): 30.03 inches Hg (1017.0 mb)
Winds: from the NE (40 degrees) at 8 MPH (7 knots; 3.6 m/s)
Visibility: 6 or more miles (10+ km)
Ceiling: 12000 feet AGL
Clouds: few clouds at 8100 feet AGL
broken clouds at 12000 feet AGL
Weather: no significant weather observed at this time

Forecast for: LIPO (BRESCIA/MONTICHI, IT)
Text: TAF LIPO 282300Z 2900/2924 VRB05KT 9999 FEW040 BKN090
Forecast period: 0000 to 1900 UTC 29 September 2021
Forecast type: FROM: standard forecast or significant change
Winds: variable direction winds at 6 MPH (5 knots; 2.6 m/s)
Visibility: 6 or more miles (10+ km)
Ceiling: 9000 feet AGL
Clouds: few clouds at 4000 feet AGL
broken clouds at 9000 feet AGL
Weather: no significant weather forecast for this period
Text: PROB40
Forecast period: 0000 to 0900 UTC 29 September 2021
Forecast type: TEMPORARY: The following changes expected for less than half the time period
Visibility: missing
Ceiling: unknown
Clouds: missing
Weather: SHRA  (rain showers)
Text: TEMPO 2900/2909 SHRA
Forecast period: 1900 UTC 29 September 2021 to 0000 UTC 30 September 2021
Forecast type: BECOMING: Conditions expected to become as follows by 2200 UTC 29 September 2021
Winds: from the E (80 degrees) at 14 MPH (12 knots; 6.2 m/s)
Visibility: 6 or more miles (10+ km)
Ceiling: 9000 feet AGL
Clouds: few clouds at 4000 feet AGL
broken clouds at 9000 feet AGL
Weather: no significant weather forecast for this period

 MAPA DE AEROPUERTO

 INFORMACIÓN DE PISTA